sensor_id;sensor_type;location;lat;lon;timestamp;P1;durP1;ratioP1;P2;durP2;ratioP2
1563;SDS011;775;51.958;7.976;2023-05-07T00:02:09;15.67;;;7.37;;
1563;SDS011;775;51.958;7.976;2023-05-07T00:04:36;16.60;;;7.47;;
1563;SDS011;775;51.958;7.976;2023-05-07T00:07:03;18.33;;;8.43;;
1563;SDS011;775;51.958;7.976;2023-05-07T00:09:33;15.87;;;7.50;;
1563;SDS011;775;51.958;7.976;2023-05-07T00:12:00;18.70;;;7.93;;
1563;SDS011;775;51.958;7.976;2023-05-07T00:14:27;18.17;;;8.27;;
1563;SDS011;775;51.958;7.976;2023-05-07T00:16:54;18.47;;;7.70;;
1563;SDS011;775;51.958;7.976;2023-05-07T00:19:22;20.57;;;8.80;;
1563;SDS011;775;51.958;7.976;2023-05-07T00:21:49;18.83;;;7.67;;
1563;SDS011;775;51.958;7.976;2023-05-07T00:24:18;17.43;;;8.40;;
1563;SDS011;775;51.958;7.976;2023-05-07T00:26:47;19.77;;;9.70;;
1563;SDS011;775;51.958;7.976;2023-05-07T00:29:14;21.30;;;9.50;;
1563;SDS011;775;51.958;7.976;2023-05-07T00:31:41;19.80;;;8.43;;
1563;SDS011;775;51.958;7.976;2023-05-07T00:34:08;17.90;;;8.70;;
1563;SDS011;775;51.958;7.976;2023-05-07T00:36:35;21.83;;;9.97;;
1563;SDS011;775;51.958;7.976;2023-05-07T00:39:02;20.23;;;8.37;;
1563;SDS011;775;51.958;7.976;2023-05-07T00:41:29;21.23;;;10.30;;
1563;SDS011;775;51.958;7.976;2023-05-07T00:43:58;19.87;;;9.40;;
1563;SDS011;775;51.958;7.976;2023-05-07T00:46:25;18.93;;;10.07;;
1563;SDS011;775;51.958;7.976;2023-05-07T00:48:52;21.13;;;10.37;;
1563;SDS011;775;51.958;7.976;2023-05-07T00:51:20;21.63;;;10.47;;
1563;SDS011;775;51.958;7.976;2023-05-07T00:53:47;19.40;;;10.43;;
1563;SDS011;775;51.958;7.976;2023-05-07T00:56:14;21.97;;;10.80;;
1563;SDS011;775;51.958;7.976;2023-05-07T00:58:41;22.50;;;11.33;;
1563;SDS011;775;51.958;7.976;2023-05-07T01:01:10;25.07;;;11.07;;
1563;SDS011;775;51.958;7.976;2023-05-07T01:03:37;24.40;;;12.10;;
1563;SDS011;775;51.958;7.976;2023-05-07T01:06:04;27.30;;;11.53;;
1563;SDS011;775;51.958;7.976;2023-05-07T01:08:33;21.83;;;11.73;;
1563;SDS011;775;51.958;7.976;2023-05-07T01:11:01;22.50;;;12.47;;
1563;SDS011;775;51.958;7.976;2023-05-07T01:13:28;22.40;;;11.50;;
1563;SDS011;775;51.958;7.976;2023-05-07T01:15:56;22.93;;;12.50;;
1563;SDS011;775;51.958;7.976;2023-05-07T01:18:24;20.70;;;10.30;;
1563;SDS011;775;51.958;7.976;2023-05-07T01:20:51;21.23;;;11.73;;
1563;SDS011;775;51.958;7.976;2023-05-07T01:23:20;21.50;;;11.70;;
1563;SDS011;775;51.958;7.976;2023-05-07T01:25:51;23.40;;;12.60;;
1563;SDS011;775;51.958;7.976;2023-05-07T01:28:18;24.17;;;12.90;;
1563;SDS011;775;51.958;7.976;2023-05-07T01:30:46;22.27;;;11.67;;
1563;SDS011;775;51.958;7.976;2023-05-07T01:33:14;24.87;;;13.07;;
1563;SDS011;775;51.958;7.976;2023-05-07T01:35:43;22.90;;;13.40;;
1563;SDS011;775;51.958;7.976;2023-05-07T01:38:12;22.60;;;12.00;;
1563;SDS011;775;51.958;7.976;2023-05-07T01:40:40;22.63;;;13.20;;
1563;SDS011;775;51.958;7.976;2023-05-07T01:43:08;26.17;;;13.90;;
1563;SDS011;775;51.958;7.976;2023-05-07T01:45:36;24.37;;;13.57;;
1563;SDS011;775;51.958;7.976;2023-05-07T01:48:03;27.03;;;13.50;;
1563;SDS011;775;51.958;7.976;2023-05-07T01:50:30;21.03;;;12.07;;
1563;SDS011;775;51.958;7.976;2023-05-07T01:52:58;20.83;;;11.57;;
1563;SDS011;775;51.958;7.976;2023-05-07T01:55:25;28.93;;;13.40;;
1563;SDS011;775;51.958;7.976;2023-05-07T01:57:54;22.20;;;12.47;;
1563;SDS011;775;51.958;7.976;2023-05-07T02:00:21;23.67;;;12.47;;
1563;SDS011;775;51.958;7.976;2023-05-07T02:02:48;22.80;;;12.27;;
1563;SDS011;775;51.958;7.976;2023-05-07T02:05:15;25.70;;;14.13;;
1563;SDS011;775;51.958;7.976;2023-05-07T02:07:42;24.27;;;12.30;;
1563;SDS011;775;51.958;7.976;2023-05-07T02:10:10;21.67;;;11.00;;
1563;SDS011;775;51.958;7.976;2023-05-07T02:12:37;24.20;;;13.03;;
1563;SDS011;775;51.958;7.976;2023-05-07T02:15:06;22.20;;;12.50;;
1563;SDS011;775;51.958;7.976;2023-05-07T02:17:33;24.00;;;13.17;;
1563;SDS011;775;51.958;7.976;2023-05-07T02:20:02;23.60;;;13.07;;
1563;SDS011;775;51.958;7.976;2023-05-07T02:22:29;19.80;;;11.87;;
1563;SDS011;775;51.958;7.976;2023-05-07T02:24:56;26.00;;;13.67;;
1563;SDS011;775;51.958;7.976;2023-05-07T02:27:23;21.40;;;12.83;;
1563;SDS011;775;51.958;7.976;2023-05-07T02:29:51;24.00;;;14.27;;
1563;SDS011;775;51.958;7.976;2023-05-07T02:32:19;21.87;;;12.20;;
1563;SDS011;775;51.958;7.976;2023-05-07T02:34:49;24.27;;;13.10;;
1563;SDS011;775;51.958;7.976;2023-05-07T02:37:17;26.23;;;13.63;;
1563;SDS011;775;51.958;7.976;2023-05-07T02:39:44;25.33;;;12.60;;
1563;SDS011;775;51.958;7.976;2023-05-07T02:42:11;21.87;;;12.13;;
1563;SDS011;775;51.958;7.976;2023-05-07T02:44:38;21.60;;;12.90;;
1563;SDS011;775;51.958;7.976;2023-05-07T02:47:05;24.37;;;13.53;;
1563;SDS011;775;51.958;7.976;2023-05-07T02:49:34;25.17;;;13.80;;
1563;SDS011;775;51.958;7.976;2023-05-07T02:52:02;23.10;;;12.53;;
1563;SDS011;775;51.958;7.976;2023-05-07T02:54:29;21.80;;;12.27;;
1563;SDS011;775;51.958;7.976;2023-05-07T02:56:56;25.17;;;14.30;;
1563;SDS011;775;51.958;7.976;2023-05-07T02:59:23;23.30;;;12.97;;
1563;SDS011;775;51.958;7.976;2023-05-07T03:01:51;23.90;;;13.07;;
1563;SDS011;775;51.958;7.976;2023-05-07T03:04:18;24.63;;;12.70;;
1563;SDS011;775;51.958;7.976;2023-05-07T03:06:46;27.30;;;13.00;;
1563;SDS011;775;51.958;7.976;2023-05-07T03:09:13;24.33;;;12.40;;
1563;SDS011;775;51.958;7.976;2023-05-07T03:11:41;26.67;;;13.93;;
1563;SDS011;775;51.958;7.976;2023-05-07T03:14:08;24.80;;;13.57;;
1563;SDS011;775;51.958;7.976;2023-05-07T03:16:35;21.53;;;13.00;;
1563;SDS011;775;51.958;7.976;2023-05-07T03:19:02;23.97;;;12.90;;
1563;SDS011;775;51.958;7.976;2023-05-07T03:21:29;26.77;;;13.60;;
1563;SDS011;775;51.958;7.976;2023-05-07T03:24:00;25.73;;;14.50;;
1563;SDS011;775;51.958;7.976;2023-05-07T03:26:27;22.60;;;12.93;;
1563;SDS011;775;51.958;7.976;2023-05-07T03:28:54;25.67;;;13.30;;
1563;SDS011;775;51.958;7.976;2023-05-07T03:31:21;24.83;;;14.10;;
1563;SDS011;775;51.958;7.976;2023-05-07T03:33:51;28.10;;;14.57;;
1563;SDS011;775;51.958;7.976;2023-05-07T03:36:19;29.17;;;15.33;;
1563;SDS011;775;51.958;7.976;2023-05-07T03:38:46;23.30;;;12.40;;
1563;SDS011;775;51.958;7.976;2023-05-07T03:41:14;25.33;;;13.87;;
1563;SDS011;775;51.958;7.976;2023-05-07T03:43:42;25.23;;;13.40;;
1563;SDS011;775;51.958;7.976;2023-05-07T03:46:09;26.17;;;14.43;;
1563;SDS011;775;51.958;7.976;2023-05-07T03:48:36;25.17;;;14.23;;
1563;SDS011;775;51.958;7.976;2023-05-07T03:51:03;26.63;;;15.07;;
1563;SDS011;775;51.958;7.976;2023-05-07T03:53:30;23.57;;;13.83;;
1563;SDS011;775;51.958;7.976;2023-05-07T03:55:57;23.07;;;13.57;;
1563;SDS011;775;51.958;7.976;2023-05-07T03:58:26;25.57;;;14.17;;
1563;SDS011;775;51.958;7.976;2023-05-07T04:00:53;26.27;;;15.23;;
1563;SDS011;775;51.958;7.976;2023-05-07T04:03:20;25.00;;;13.00;;
1563;SDS011;775;51.958;7.976;2023-05-07T04:05:47;23.30;;;13.90;;
1563;SDS011;775;51.958;7.976;2023-05-07T04:08:14;24.07;;;14.00;;
1563;SDS011;775;51.958;7.976;2023-05-07T04:10:41;24.63;;;15.07;;
1563;SDS011;775;51.958;7.976;2023-05-07T04:13:08;24.47;;;13.60;;
1563;SDS011;775;51.958;7.976;2023-05-07T04:15:37;29.10;;;15.70;;
1563;SDS011;775;51.958;7.976;2023-05-07T04:18:04;23.00;;;13.40;;
1563;SDS011;775;51.958;7.976;2023-05-07T04:20:33;24.80;;;12.83;;
1563;SDS011;775;51.958;7.976;2023-05-07T04:23:01;28.20;;;15.77;;
1563;SDS011;775;51.958;7.976;2023-05-07T04:25:28;26.47;;;14.23;;
1563;SDS011;775;51.958;7.976;2023-05-07T04:27:55;23.53;;;13.00;;
1563;SDS011;775;51.958;7.976;2023-05-07T04:30:22;27.77;;;14.73;;
1563;SDS011;775;51.958;7.976;2023-05-07T04:32:51;24.53;;;14.03;;
1563;SDS011;775;51.958;7.976;2023-05-07T04:35:18;25.50;;;14.30;;
1563;SDS011;775;51.958;7.976;2023-05-07T04:37:45;22.07;;;12.47;;
1563;SDS011;775;51.958;7.976;2023-05-07T04:40:13;25.67;;;15.43;;
1563;SDS011;775;51.958;7.976;2023-05-07T04:42:41;24.77;;;13.87;;
1563;SDS011;775;51.958;7.976;2023-05-07T04:45:08;23.63;;;14.03;;
1563;SDS011;775;51.958;7.976;2023-05-07T04:47:35;25.43;;;13.53;;
1563;SDS011;775;51.958;7.976;2023-05-07T04:50:04;23.27;;;13.20;;
1563;SDS011;775;51.958;7.976;2023-05-07T04:52:31;23.63;;;13.73;;
1563;SDS011;775;51.958;7.976;2023-05-07T04:54:59;25.53;;;14.43;;
1563;SDS011;775;51.958;7.976;2023-05-07T04:57:26;24.50;;;13.30;;
1563;SDS011;775;51.958;7.976;2023-05-07T04:59:53;24.43;;;12.87;;
1563;SDS011;775;51.958;7.976;2023-05-07T05:02:20;27.10;;;14.80;;
1563;SDS011;775;51.958;7.976;2023-05-07T05:04:47;24.80;;;14.47;;
1563;SDS011;775;51.958;7.976;2023-05-07T05:07:16;26.30;;;14.20;;
1563;SDS011;775;51.958;7.976;2023-05-07T05:09:43;26.13;;;14.63;;
1563;SDS011;775;51.958;7.976;2023-05-07T05:12:10;24.73;;;13.87;;
1563;SDS011;775;51.958;7.976;2023-05-07T05:14:37;22.67;;;13.70;;
1563;SDS011;775;51.958;7.976;2023-05-07T05:17:04;24.10;;;14.60;;
1563;SDS011;775;51.958;7.976;2023-05-07T05:19:31;24.50;;;13.60;;
1563;SDS011;775;51.958;7.976;2023-05-07T05:21:58;24.27;;;12.80;;
1563;SDS011;775;51.958;7.976;2023-05-07T05:24:27;26.57;;;15.53;;
1563;SDS011;775;51.958;7.976;2023-05-07T05:26:54;25.70;;;14.80;;
1563;SDS011;775;51.958;7.976;2023-05-07T05:29:21;24.87;;;13.40;;
1563;SDS011;775;51.958;7.976;2023-05-07T05:31:48;24.30;;;14.07;;
1563;SDS011;775;51.958;7.976;2023-05-07T05:34:15;24.67;;;13.57;;
1563;SDS011;775;51.958;7.976;2023-05-07T05:36:44;22.70;;;12.57;;
1563;SDS011;775;51.958;7.976;2023-05-07T05:39:11;24.37;;;14.87;;
1563;SDS011;775;51.958;7.976;2023-05-07T05:41:40;25.47;;;14.10;;
1563;SDS011;775;51.958;7.976;2023-05-07T05:44:07;23.63;;;12.90;;
1563;SDS011;775;51.958;7.976;2023-05-07T05:46:34;23.63;;;13.90;;
1563;SDS011;775;51.958;7.976;2023-05-07T05:49:01;25.73;;;14.90;;
1563;SDS011;775;51.958;7.976;2023-05-07T05:51:28;25.60;;;14.43;;
1563;SDS011;775;51.958;7.976;2023-05-07T05:53:55;25.53;;;14.20;;
1563;SDS011;775;51.958;7.976;2023-05-07T05:56:23;26.97;;;13.70;;
1563;SDS011;775;51.958;7.976;2023-05-07T05:58:52;26.63;;;15.77;;
1563;SDS011;775;51.958;7.976;2023-05-07T06:01:19;25.60;;;14.60;;
1563;SDS011;775;51.958;7.976;2023-05-07T06:03:46;26.10;;;14.00;;
1563;SDS011;775;51.958;7.976;2023-05-07T06:06:13;22.93;;;11.60;;
1563;SDS011;775;51.958;7.976;2023-05-07T06:08:40;25.60;;;13.77;;
1563;SDS011;775;51.958;7.976;2023-05-07T06:11:08;23.20;;;12.03;;
1563;SDS011;775;51.958;7.976;2023-05-07T06:13:35;22.20;;;12.27;;
1563;SDS011;775;51.958;7.976;2023-05-07T06:16:03;23.73;;;14.00;;
1563;SDS011;775;51.958;7.976;2023-05-07T06:18:31;20.87;;;11.40;;
1563;SDS011;775;51.958;7.976;2023-05-07T06:20:58;22.60;;;12.60;;
1563;SDS011;775;51.958;7.976;2023-05-07T06:23:25;25.40;;;12.77;;
1563;SDS011;775;51.958;7.976;2023-05-07T06:25:52;22.10;;;12.53;;
1563;SDS011;775;51.958;7.976;2023-05-07T06:28:19;26.10;;;14.13;;
1563;SDS011;775;51.958;7.976;2023-05-07T06:30:46;22.97;;;12.80;;
1563;SDS011;775;51.958;7.976;2023-05-07T06:33:16;23.60;;;13.77;;
1563;SDS011;775;51.958;7.976;2023-05-07T06:35:44;25.33;;;14.07;;
1563;SDS011;775;51.958;7.976;2023-05-07T06:38:11;24.90;;;13.83;;
1563;SDS011;775;51.958;7.976;2023-05-07T06:40:38;25.27;;;13.70;;
1563;SDS011;775;51.958;7.976;2023-05-07T06:43:05;25.17;;;14.97;;
1563;SDS011;775;51.958;7.976;2023-05-07T06:45:32;27.13;;;15.13;;
1563;SDS011;775;51.958;7.976;2023-05-07T06:48:00;27.47;;;14.70;;
1563;SDS011;775;51.958;7.976;2023-05-07T06:50:28;25.03;;;14.23;;
1563;SDS011;775;51.958;7.976;2023-05-07T06:52:55;25.73;;;13.13;;
1563;SDS011;775;51.958;7.976;2023-05-07T06:55:22;24.30;;;13.00;;
1563;SDS011;775;51.958;7.976;2023-05-07T06:57:49;23.57;;;13.90;;
1563;SDS011;775;51.958;7.976;2023-05-07T07:00:16;27.07;;;13.33;;
1563;SDS011;775;51.958;7.976;2023-05-07T07:02:44;23.47;;;13.43;;
1563;SDS011;775;51.958;7.976;2023-05-07T07:05:11;25.60;;;13.77;;
1563;SDS011;775;51.958;7.976;2023-05-07T07:07:39;27.67;;;15.60;;
1563;SDS011;775;51.958;7.976;2023-05-07T07:10:07;23.20;;;13.47;;
1563;SDS011;775;51.958;7.976;2023-05-07T07:12:34;24.80;;;13.70;;
1563;SDS011;775;51.958;7.976;2023-05-07T07:15:01;24.53;;;13.63;;
1563;SDS011;775;51.958;7.976;2023-05-07T07:17:28;18.90;;;9.67;;
1563;SDS011;775;51.958;7.976;2023-05-07T07:19:55;24.13;;;14.00;;
1563;SDS011;775;51.958;7.976;2023-05-07T07:22:22;22.87;;;11.23;;
1563;SDS011;775;51.958;7.976;2023-05-07T07:24:51;23.83;;;14.20;;
1563;SDS011;775;51.958;7.976;2023-05-07T07:27:18;25.93;;;14.50;;
1563;SDS011;775;51.958;7.976;2023-05-07T07:29:45;26.33;;;13.30;;
1563;SDS011;775;51.958;7.976;2023-05-07T07:32:12;27.30;;;14.67;;
1563;SDS011;775;51.958;7.976;2023-05-07T07:34:39;22.77;;;12.10;;
1563;SDS011;775;51.958;7.976;2023-05-07T07:37:06;24.83;;;11.63;;
1563;SDS011;775;51.958;7.976;2023-05-07T07:39:33;22.17;;;12.20;;
1563;SDS011;775;51.958;7.976;2023-05-07T07:42:04;22.07;;;11.20;;
1563;SDS011;775;51.958;7.976;2023-05-07T07:44:31;22.40;;;11.33;;
1563;SDS011;775;51.958;7.976;2023-05-07T07:46:58;23.50;;;11.57;;
1563;SDS011;775;51.958;7.976;2023-05-07T07:49:25;24.13;;;12.67;;
1563;SDS011;775;51.958;7.976;2023-05-07T07:51:52;23.60;;;12.40;;
1563;SDS011;775;51.958;7.976;2023-05-07T07:54:19;22.77;;;12.50;;
1563;SDS011;775;51.958;7.976;2023-05-07T07:56:46;23.10;;;12.60;;
1563;SDS011;775;51.958;7.976;2023-05-07T07:59:15;25.90;;;14.80;;
1563;SDS011;775;51.958;7.976;2023-05-07T08:01:43;21.67;;;12.17;;
1563;SDS011;775;51.958;7.976;2023-05-07T08:04:11;21.97;;;10.90;;
1563;SDS011;775;51.958;7.976;2023-05-07T08:06:38;22.57;;;11.57;;
1563;SDS011;775;51.958;7.976;2023-05-07T08:09:05;24.27;;;11.30;;
1563;SDS011;775;51.958;7.976;2023-05-07T08:11:32;22.23;;;11.90;;
1563;SDS011;775;51.958;7.976;2023-05-07T08:13:59;21.00;;;10.57;;
1563;SDS011;775;51.958;7.976;2023-05-07T08:16:28;20.63;;;10.30;;
1563;SDS011;775;51.958;7.976;2023-05-07T08:18:55;23.43;;;12.87;;
1563;SDS011;775;51.958;7.976;2023-05-07T08:21:22;22.70;;;11.60;;
1563;SDS011;775;51.958;7.976;2023-05-07T08:23:49;19.70;;;10.07;;
1563;SDS011;775;51.958;7.976;2023-05-07T08:26:17;23.10;;;11.77;;
1563;SDS011;775;51.958;7.976;2023-05-07T08:28:44;18.43;;;8.30;;
1563;SDS011;775;51.958;7.976;2023-05-07T08:31:11;26.13;;;12.30;;
1563;SDS011;775;51.958;7.976;2023-05-07T08:33:39;21.23;;;10.20;;
1563;SDS011;775;51.958;7.976;2023-05-07T08:36:06;19.50;;;10.17;;
1563;SDS011;775;51.958;7.976;2023-05-07T08:38:33;21.17;;;9.87;;
1563;SDS011;775;51.958;7.976;2023-05-07T08:41:00;18.83;;;9.80;;
1563;SDS011;775;51.958;7.976;2023-05-07T08:43:28;22.47;;;11.93;;
1563;SDS011;775;51.958;7.976;2023-05-07T08:45:55;21.50;;;9.90;;
1563;SDS011;775;51.958;7.976;2023-05-07T08:48:25;20.03;;;10.63;;
1563;SDS011;775;51.958;7.976;2023-05-07T08:50:53;22.53;;;11.87;;
1563;SDS011;775;51.958;7.976;2023-05-07T08:53:20;19.87;;;10.20;;
1563;SDS011;775;51.958;7.976;2023-05-07T08:55:47;18.33;;;9.07;;
1563;SDS011;775;51.958;7.976;2023-05-07T08:58:15;20.17;;;10.60;;
1563;SDS011;775;51.958;7.976;2023-05-07T09:00:42;19.30;;;9.93;;
1563;SDS011;775;51.958;7.976;2023-05-07T09:03:09;22.57;;;10.17;;
1563;SDS011;775;51.958;7.976;2023-05-07T09:05:37;21.47;;;10.80;;
1563;SDS011;775;51.958;7.976;2023-05-07T09:08:06;21.47;;;11.23;;
1563;SDS011;775;51.958;7.976;2023-05-07T09:10:34;21.27;;;9.03;;
1563;SDS011;775;51.958;7.976;2023-05-07T09:13:02;20.80;;;10.60;;
1563;SDS011;775;51.958;7.976;2023-05-07T09:15:30;20.93;;;9.50;;
1563;SDS011;775;51.958;7.976;2023-05-07T09:17:58;22.30;;;9.13;;
1563;SDS011;775;51.958;7.976;2023-05-07T09:20:27;20.60;;;10.23;;
1563;SDS011;775;51.958;7.976;2023-05-07T09:22:55;17.20;;;7.50;;
1563;SDS011;775;51.958;7.976;2023-05-07T09:25:29;17.23;;;7.77;;
1563;SDS011;775;51.958;7.976;2023-05-07T09:27:56;19.57;;;9.37;;
1563;SDS011;775;51.958;7.976;2023-05-07T09:30:26;18.67;;;8.33;;
1563;SDS011;775;51.958;7.976;2023-05-07T09:32:53;16.47;;;7.53;;
1563;SDS011;775;51.958;7.976;2023-05-07T09:35:21;18.00;;;9.17;;
1563;SDS011;775;51.958;7.976;2023-05-07T09:37:49;19.27;;;8.70;;
1563;SDS011;775;51.958;7.976;2023-05-07T09:40:20;18.60;;;9.20;;
1563;SDS011;775;51.958;7.976;2023-05-07T09:42:48;18.30;;;8.83;;
1563;SDS011;775;51.958;7.976;2023-05-07T09:45:15;18.90;;;7.73;;
1563;SDS011;775;51.958;7.976;2023-05-07T09:47:42;15.80;;;7.30;;
1563;SDS011;775;51.958;7.976;2023-05-07T09:50:10;19.60;;;8.90;;
1563;SDS011;775;51.958;7.976;2023-05-07T09:52:39;18.23;;;7.97;;
1563;SDS011;775;51.958;7.976;2023-05-07T09:55:07;16.57;;;7.67;;
1563;SDS011;775;51.958;7.976;2023-05-07T09:57:35;18.13;;;8.67;;
1563;SDS011;775;51.958;7.976;2023-05-07T10:00:04;17.57;;;8.00;;
1563;SDS011;775;51.958;7.976;2023-05-07T10:02:33;16.90;;;7.50;;
1563;SDS011;775;51.958;7.976;2023-05-07T10:05:02;17.90;;;8.17;;
1563;SDS011;775;51.958;7.976;2023-05-07T10:07:29;17.33;;;7.57;;
1563;SDS011;775;51.958;7.976;2023-05-07T10:09:56;14.87;;;6.60;;
1563;SDS011;775;51.958;7.976;2023-05-07T10:12:24;18.20;;;7.50;;
1563;SDS011;775;51.958;7.976;2023-05-07T10:14:51;20.30;;;8.50;;
1563;SDS011;775;51.958;7.976;2023-05-07T10:17:21;20.13;;;7.87;;
1563;SDS011;775;51.958;7.976;2023-05-07T10:19:49;15.73;;;7.10;;
1563;SDS011;775;51.958;7.976;2023-05-07T10:22:17;17.60;;;7.07;;
1563;SDS011;775;51.958;7.976;2023-05-07T10:24:44;15.80;;;6.83;;
1563;SDS011;775;51.958;7.976;2023-05-07T10:27:12;16.83;;;7.10;;
1563;SDS011;775;51.958;7.976;2023-05-07T10:29:44;16.67;;;6.53;;
1563;SDS011;775;51.958;7.976;2023-05-07T10:32:24;17.50;;;7.43;;
1563;SDS011;775;51.958;7.976;2023-05-07T10:34:57;15.87;;;6.77;;
1563;SDS011;775;51.958;7.976;2023-05-07T10:37:25;15.50;;;6.00;;
1563;SDS011;775;51.958;7.976;2023-05-07T10:39:52;15.57;;;6.30;;
1563;SDS011;775;51.958;7.976;2023-05-07T10:42:19;16.20;;;7.33;;
1563;SDS011;775;51.958;7.976;2023-05-07T10:44:46;16.67;;;7.47;;
1563;SDS011;775;51.958;7.976;2023-05-07T10:47:15;14.53;;;6.23;;
1563;SDS011;775;51.958;7.976;2023-05-07T10:52:35;16.43;;;6.47;;
1563;SDS011;775;51.958;7.976;2023-05-07T10:55:18;15.50;;;6.73;;
1563;SDS011;775;51.958;7.976;2023-05-07T10:57:46;14.47;;;6.30;;
1563;SDS011;775;51.958;7.976;2023-05-07T11:03:05;15.87;;;6.73;;
1563;SDS011;775;51.958;7.976;2023-05-07T11:05:34;14.97;;;6.40;;
1563;SDS011;775;51.958;7.976;2023-05-07T11:08:03;14.50;;;6.03;;
1563;SDS011;775;51.958;7.976;2023-05-07T11:10:52;14.90;;;5.90;;
1563;SDS011;775;51.958;7.976;2023-05-07T11:16:01;18.53;;;8.70;;
1563;SDS011;775;51.958;7.976;2023-05-07T11:18:42;14.37;;;5.27;;
1563;SDS011;775;51.958;7.976;2023-05-07T11:21:12;14.17;;;6.00;;
1563;SDS011;775;51.958;7.976;2023-05-07T11:23:57;16.50;;;7.07;;
1563;SDS011;775;51.958;7.976;2023-05-07T11:26:25;14.33;;;5.93;;
1563;SDS011;775;51.958;7.976;2023-05-07T11:28:52;15.83;;;6.60;;
1563;SDS011;775;51.958;7.976;2023-05-07T11:31:20;16.40;;;6.47;;
1563;SDS011;775;51.958;7.976;2023-05-07T11:33:48;14.60;;;5.90;;
1563;SDS011;775;51.958;7.976;2023-05-07T11:36:15;14.57;;;5.87;;
1563;SDS011;775;51.958;7.976;2023-05-07T11:38:42;14.93;;;6.20;;
1563;SDS011;775;51.958;7.976;2023-05-07T11:41:11;15.60;;;6.43;;
1563;SDS011;775;51.958;7.976;2023-05-07T11:43:40;15.80;;;6.73;;
1563;SDS011;775;51.958;7.976;2023-05-07T11:46:20;15.77;;;6.10;;
1563;SDS011;775;51.958;7.976;2023-05-07T11:48:47;16.93;;;5.73;;
1563;SDS011;775;51.958;7.976;2023-05-07T11:51:15;16.43;;;7.10;;
1563;SDS011;775;51.958;7.976;2023-05-07T11:53:45;17.33;;;6.80;;
1563;SDS011;775;51.958;7.976;2023-05-07T11:56:14;15.70;;;6.30;;
1563;SDS011;775;51.958;7.976;2023-05-07T11:58:41;13.03;;;5.10;;
1563;SDS011;775;51.958;7.976;2023-05-07T12:01:10;15.10;;;6.00;;
1563;SDS011;775;51.958;7.976;2023-05-07T12:03:37;15.23;;;6.40;;
1563;SDS011;775;51.958;7.976;2023-05-07T12:06:05;15.33;;;6.50;;
1563;SDS011;775;51.958;7.976;2023-05-07T12:08:32;14.37;;;5.70;;
1563;SDS011;775;51.958;7.976;2023-05-07T12:10:59;14.57;;;5.83;;
1563;SDS011;775;51.958;7.976;2023-05-07T12:13:28;16.17;;;5.60;;
1563;SDS011;775;51.958;7.976;2023-05-07T12:15:56;15.63;;;5.90;;
1563;SDS011;775;51.958;7.976;2023-05-07T12:18:23;14.43;;;5.90;;
1563;SDS011;775;51.958;7.976;2023-05-07T12:20:50;13.87;;;5.43;;
1563;SDS011;775;51.958;7.976;2023-05-07T12:23:18;14.63;;;5.70;;
1563;SDS011;775;51.958;7.976;2023-05-07T12:25:45;13.87;;;5.20;;
1563;SDS011;775;51.958;7.976;2023-05-07T12:28:13;15.77;;;5.80;;
1563;SDS011;775;51.958;7.976;2023-05-07T12:30:42;14.03;;;5.07;;
1563;SDS011;775;51.958;7.976;2023-05-07T12:33:09;15.10;;;6.17;;
1563;SDS011;775;51.958;7.976;2023-05-07T12:35:37;16.67;;;5.60;;
1563;SDS011;775;51.958;7.976;2023-05-07T12:38:07;14.50;;;5.20;;
1563;SDS011;775;51.958;7.976;2023-05-07T12:40:38;12.60;;;4.90;;
1563;SDS011;775;51.958;7.976;2023-05-07T12:43:05;14.50;;;5.53;;
1563;SDS011;775;51.958;7.976;2023-05-07T12:45:36;13.80;;;5.60;;
1563;SDS011;775;51.958;7.976;2023-05-07T12:48:05;14.53;;;5.17;;
1563;SDS011;775;51.958;7.976;2023-05-07T12:50:32;15.80;;;6.40;;
1563;SDS011;775;51.958;7.976;2023-05-07T12:52:59;14.40;;;5.80;;
1563;SDS011;775;51.958;7.976;2023-05-07T12:55:28;14.63;;;5.87;;
1563;SDS011;775;51.958;7.976;2023-05-07T12:57:55;14.20;;;5.83;;
1563;SDS011;775;51.958;7.976;2023-05-07T13:00:32;16.30;;;6.67;;
1563;SDS011;775;51.958;7.976;2023-05-07T13:03:00;14.90;;;6.00;;
1563;SDS011;775;51.958;7.976;2023-05-07T13:05:28;14.50;;;5.60;;
1563;SDS011;775;51.958;7.976;2023-05-07T13:07:55;15.40;;;5.77;;
1563;SDS011;775;51.958;7.976;2023-05-07T13:10:23;14.57;;;5.50;;
1563;SDS011;775;51.958;7.976;2023-05-07T13:12:50;13.23;;;4.97;;
1563;SDS011;775;51.958;7.976;2023-05-07T13:15:18;15.47;;;6.00;;
1563;SDS011;775;51.958;7.976;2023-05-07T13:17:45;16.33;;;5.47;;
1563;SDS011;775;51.958;7.976;2023-05-07T13:20:12;13.77;;;5.10;;
1563;SDS011;775;51.958;7.976;2023-05-07T13:22:41;13.20;;;4.60;;
1563;SDS011;775;51.958;7.976;2023-05-07T13:25:09;16.10;;;4.70;;
1563;SDS011;775;51.958;7.976;2023-05-07T13:27:36;14.67;;;5.60;;
1563;SDS011;775;51.958;7.976;2023-05-07T13:30:03;15.53;;;5.37;;
1563;SDS011;775;51.958;7.976;2023-05-07T13:32:31;14.37;;;5.10;;
1563;SDS011;775;51.958;7.976;2023-05-07T13:34:58;15.30;;;5.47;;
1563;SDS011;775;51.958;7.976;2023-05-07T13:37:25;14.00;;;6.27;;
1563;SDS011;775;51.958;7.976;2023-05-07T13:39:54;13.13;;;4.67;;
1563;SDS011;775;51.958;7.976;2023-05-07T13:42:21;12.87;;;4.67;;
1563;SDS011;775;51.958;7.976;2023-05-07T13:44:48;13.60;;;4.70;;
1563;SDS011;775;51.958;7.976;2023-05-07T13:47:15;14.13;;;4.57;;
1563;SDS011;775;51.958;7.976;2023-05-07T13:49:43;14.00;;;5.23;;
1563;SDS011;775;51.958;7.976;2023-05-07T13:52:10;13.77;;;4.60;;
1563;SDS011;775;51.958;7.976;2023-05-07T13:54:37;13.20;;;4.37;;
1563;SDS011;775;51.958;7.976;2023-05-07T13:57:05;14.17;;;5.47;;
1563;SDS011;775;51.958;7.976;2023-05-07T13:59:32;13.83;;;4.73;;
1563;SDS011;775;51.958;7.976;2023-05-07T14:02:00;14.40;;;5.13;;
1563;SDS011;775;51.958;7.976;2023-05-07T14:04:27;12.80;;;4.13;;
1563;SDS011;775;51.958;7.976;2023-05-07T14:06:54;12.60;;;4.70;;
1563;SDS011;775;51.958;7.976;2023-05-07T14:09:21;13.13;;;4.80;;
1563;SDS011;775;51.958;7.976;2023-05-07T14:11:48;14.03;;;5.60;;
1563;SDS011;775;51.958;7.976;2023-05-07T14:14:17;14.37;;;4.97;;
1563;SDS011;775;51.958;7.976;2023-05-07T14:16:44;14.27;;;4.80;;
1563;SDS011;775;51.958;7.976;2023-05-07T14:19:12;13.83;;;4.70;;
1563;SDS011;775;51.958;7.976;2023-05-07T14:21:39;13.57;;;4.30;;
1563;SDS011;775;51.958;7.976;2023-05-07T14:24:06;13.40;;;4.20;;
1563;SDS011;775;51.958;7.976;2023-05-07T14:26:34;12.87;;;4.50;;
1563;SDS011;775;51.958;7.976;2023-05-07T14:29:01;12.57;;;4.43;;
1563;SDS011;775;51.958;7.976;2023-05-07T14:31:29;13.60;;;4.60;;
1563;SDS011;775;51.958;7.976;2023-05-07T14:33:57;14.57;;;5.30;;
1563;SDS011;775;51.958;7.976;2023-05-07T14:36:25;12.63;;;4.60;;
1563;SDS011;775;51.958;7.976;2023-05-07T14:38:52;13.00;;;4.60;;
1563;SDS011;775;51.958;7.976;2023-05-07T14:41:19;14.13;;;4.77;;
1563;SDS011;775;51.958;7.976;2023-05-07T14:43:47;12.63;;;4.13;;
1563;SDS011;775;51.958;7.976;2023-05-07T14:46:15;13.00;;;4.30;;
1563;SDS011;775;51.958;7.976;2023-05-07T14:48:44;13.30;;;4.53;;
1563;SDS011;775;51.958;7.976;2023-05-07T14:51:11;13.03;;;4.33;;
1563;SDS011;775;51.958;7.976;2023-05-07T14:53:38;13.53;;;4.53;;
1563;SDS011;775;51.958;7.976;2023-05-07T14:56:05;13.30;;;4.40;;
1563;SDS011;775;51.958;7.976;2023-05-07T14:58:33;13.37;;;4.57;;
1563;SDS011;775;51.958;7.976;2023-05-07T15:01:00;12.73;;;3.97;;
1563;SDS011;775;51.958;7.976;2023-05-07T15:03:27;13.10;;;4.37;;
1563;SDS011;775;51.958;7.976;2023-05-07T15:05:56;13.03;;;4.43;;
1563;SDS011;775;51.958;7.976;2023-05-07T15:08:23;12.77;;;4.50;;
1563;SDS011;775;51.958;7.976;2023-05-07T15:10:50;12.57;;;4.23;;
1563;SDS011;775;51.958;7.976;2023-05-07T15:13:17;13.50;;;5.00;;
1563;SDS011;775;51.958;7.976;2023-05-07T15:15:45;12.53;;;4.70;;
1563;SDS011;775;51.958;7.976;2023-05-07T15:18:12;14.33;;;4.43;;
1563;SDS011;775;51.958;7.976;2023-05-07T15:20:39;12.40;;;3.53;;